Relevés horaires Bierset (Belgique)


Relevés horaires à Bierset - Lundi 06 Août 2018
Heure UTC1 Température [°C] Vent [km/h] Hum. [%] Pres.4 [hPa] Visi. [Km] Nébu. [octa] Préc.5 [mm] Cond.
2m. Res. Ros. Dir.2 Vit. Moy. Raf.3
23:00 25.3 25.3 11.6 NNE 3.7 3.7 7.4 42 1012(0.2/3h) 50 1/8 -- --
22:00 26.3 26.3 11.4 NNO 1.9 1.9 3.7 39 1012.1(0.3/3h) 50 1/8 -- --
21:00 26.2 26.2 13.3 NNE 1.9 7.4 9.3 45 1012.1(0.3/3h) 50 1/8 -- --
20:00 27.9 27.9 11.5 NE 1.9 3.7 5.6 36 1012(-0.1/3h) 45 1/8 -- --
19:00 28.7 28.7 11.4 N 3.7 7.4 9.3 34 1011.7(-0.5/3h) 45 1/8 -- --
18:00 30.9 30.9 11.3 N 5.6 7.4 14.8 30 1011.5(-1.1/3h) 40 1/8 trace/12h
--
17:00 31.9 31.9 11.2 N 5.6 5.6 11.1 28 1011.6(-1.5/3h) 40 1/8 -- --
16:00 33.0 33.0 9.4 OSO 5.6 5.6 11.1 23 1011.9(-1.7/3h) 40 1/8 -- --
15:00 32.6 32.6 9.4 O 5.6 7.4 14.8 24 1012.6(-1.5/3h) 40 1/8 -- --
14:00 33.2 33.2 10.0 OSO 5.6 7.4 14.8 24 1013(-1.6/3h) 40 1/8 -- --
13:00 32.3 32.3 7.8 NNO 3.7 7.4 13.0 22 1013.8(-1.6/3h) 40 1/8 -- --
12:00 31.5 31.5 9.0 SSO 7.4 7.4 18.5 25 1014.2(-1.7/3h) 40 1/8 0/6h
--
11:00 30.2 30.2 10.2 SSO 3.7 5.6 11.1 29 1014.9(-1.4/3h) 40 1/8 -- --
10:00 29.4 29.4 10.7 NNO 1.9 3.7 9.3 31 1015.6(-1.1/3h) 40 1/8 -- --
09:00 27.7 27.7 11.5 NNO 3.7 7.4 18.5 37 1016.2(-0.7/3h) 40 1/8 -- --
08:00 24.5 24.5 11.4 SSE 5.6 5.6 13.0 44 1016.7(-0.3/3h) 40 2/8 -- --
07:00 21.9 21.9 11.3 SSE 3.7 3.7 5.6 51 1017.3(-0.1/3h) 40 2/8 -- --
06:00 20.0 20.0 10.9 SE 3.7 5.6 18.5 56 1017.4(-0.5/3h) 45 2/8 0/12h
--
05:00 17.6 17.6 11.3 ESE 5.6 5.6 18.5 67 1017.5(-1.1/3h) 45 2/8 -- --
04:00 17.0 17.0 11.4 ESE 3.7 3.7 14.8 70 1017.7(-1.5/3h) 45 4/8 -- --
03:00 17.5 17.5 11.5 SE 3.7 5.6 16.7 68 1018.1(-1.7/3h) 45 4/8 -- --
02:00 18.8 18.8 10.8 E 3.7 5.6 13.0 60 1018.6(-1.7/3h) 45 2/8 -- --
01:00 19.7 19.7 10.7 E 5.6 5.6 16.7 56 1019.1(-1.1/3h) 45 2/8 -- --
00:00 20.1 20.1 11.2 ENE 3.7 9.3 16.7 57 1019.6(-0.5/3h) 45 0/8 0/6h
0/24h
--

1 Coordinated Universal Time. Actuellement il est 03:00 locale et 01:00 UTC.

2 Le vent souffle depuis la direction indiquée vers la direction oposée.

3 Les rafales max. sont disponible 40 min après l'heure du relevé.

4 Pour les stations d'altitude (plus de 600m) le géopotentiel du niveau le plus proche de la pression obligatoire est indiqué.

5 Les stations disposant d'un diffuseur peuvent indiquer "trace". Cela signifie que des précipitations ont touchés le sol mais que la quantité est inférieure à 0.1 mm.

Récapitulatif de la journée
Température [°C] Vent [km/h] Ensoleillement4 [h] Precipitations totale5 [mm] Pression [Hpa]
Min1 Max.2 Moy.3 Max. Min Max.
16.9 33.6 5.8 18.5 0 h 0 min 0 1011.5 1019.6

1 Température minimale relevée entre 18:00 UTC la veille et 18:00 UTC le jour donné.

2 Température maximale relevée entre 06:00 UTC le jour donné et 06:00 UTC le lendemain.

3 Vent moyen de la journée basé sur les relevés horaires.

4 Ensoleillement en heures relevé entre 06:00 UTC la veille et 06:00 UTC le jour donné.

5 Précipitations totales tombées entre 06:00 UTC la jour donné et 06:00 UTC le lendemain.

Graphiques horaires